sensor_id;sensor_type;location;lat;lon;timestamp;pressure;altitude;pressure_sealevel;temperature;humidity
51333;BME280;37417;48.118;11.734;2023-05-16T00:01:23;95089.59;;;9.38;100.00
51333;BME280;37417;48.118;11.734;2023-05-16T00:04:09;95085.16;;;9.32;100.00
51333;BME280;37417;48.118;11.734;2023-05-16T00:06:55;95076.16;;;9.28;100.00
51333;BME280;37417;48.118;11.734;2023-05-16T00:09:40;95071.56;;;9.30;100.00
51333;BME280;37417;48.118;11.734;2023-05-16T00:12:26;95068.94;;;9.23;100.00
51333;BME280;37417;48.118;11.734;2023-05-16T00:15:12;95072.53;;;9.22;100.00
51333;BME280;37417;48.118;11.734;2023-05-16T00:17:58;95081.53;;;9.20;100.00
51333;BME280;37417;48.118;11.734;2023-05-16T00:20:44;95076.53;;;9.25;100.00
51333;BME280;37417;48.118;11.734;2023-05-16T00:23:30;95066.72;;;9.20;100.00
51333;BME280;37417;48.118;11.734;2023-05-16T00:26:16;95079.31;;;9.10;100.00
51333;BME280;37417;48.118;11.734;2023-05-16T00:29:01;95080.09;;;9.11;100.00
51333;BME280;37417;48.118;11.734;2023-05-16T00:31:47;95085.69;;;9.14;100.00
51333;BME280;37417;48.118;11.734;2023-05-16T00:34:34;95083.50;;;9.11;100.00
51333;BME280;37417;48.118;11.734;2023-05-16T00:37:19;95084.28;;;9.05;100.00
51333;BME280;37417;48.118;11.734;2023-05-16T00:40:06;95091.72;;;9.08;100.00
51333;BME280;37417;48.118;11.734;2023-05-16T00:42:52;95085.69;;;9.14;100.00
51333;BME280;37417;48.118;11.734;2023-05-16T00:45:37;95085.69;;;9.14;100.00
51333;BME280;37417;48.118;11.734;2023-05-16T00:48:23;95086.94;;;9.18;100.00
51333;BME280;37417;48.118;11.734;2023-05-16T00:51:09;95089.72;;;9.10;100.00
51333;BME280;37417;48.118;11.734;2023-05-16T00:53:55;95079.28;;;9.04;100.00
51333;BME280;37417;48.118;11.734;2023-05-16T00:56:41;95079.66;;;9.01;100.00
51333;BME280;37417;48.118;11.734;2023-05-16T00:59:27;95084.06;;;9.07;100.00
51333;BME280;37417;48.118;11.734;2023-05-16T01:02:13;95084.06;;;9.07;100.00
51333;BME280;37417;48.118;11.734;2023-05-16T01:04:59;95091.28;;;9.05;100.00
51333;BME280;37417;48.118;11.734;2023-05-16T01:07:45;95088.94;;;9.16;100.00
51333;BME280;37417;48.118;11.734;2023-05-16T01:10:37;95079.31;;;9.10;100.00
51333;BME280;37417;48.118;11.734;2023-05-16T01:13:39;95083.31;;;9.13;100.00
51333;BME280;37417;48.118;11.734;2023-05-16T01:16:38;95074.47;;;9.07;100.00
51333;BME280;37417;48.118;11.734;2023-05-16T01:22:37;95071.22;;;8.92;100.00
51333;BME280;37417;48.118;11.734;2023-05-16T01:28:21;95064.38;;;8.78;100.00
51333;BME280;37417;48.118;11.734;2023-05-16T01:31:07;95071.53;;;8.76;100.00
51333;BME280;37417;48.118;11.734;2023-05-16T01:33:53;95072.38;;;8.76;100.00
51333;BME280;37417;48.118;11.734;2023-05-16T01:36:56;95075.13;;;8.75;100.00
51333;BME280;37417;48.118;11.734;2023-05-16T01:39:51;95071.53;;;8.76;100.00
51333;BME280;37417;48.118;11.734;2023-05-16T01:42:43;95070.16;;;8.80;100.00
51333;BME280;37417;48.118;11.734;2023-05-16T01:45:32;95072.72;;;8.73;100.00
51333;BME280;37417;48.118;11.734;2023-05-16T01:48:22;95073.69;;;8.65;100.00
51333;BME280;37417;48.118;11.734;2023-05-16T01:51:11;95075.72;;;8.70;100.00
51333;BME280;37417;48.118;11.734;2023-05-16T01:53:59;95081.34;;;8.74;100.00
51333;BME280;37417;48.118;11.734;2023-05-16T01:56:52;95081.34;;;8.74;100.00
51333;BME280;37417;48.118;11.734;2023-05-16T01:59:39;95083.75;;;8.82;100.00
51333;BME280;37417;48.118;11.734;2023-05-16T02:02:27;95080.56;;;8.80;100.00
51333;BME280;37417;48.118;11.734;2023-05-16T02:05:12;95073.03;;;8.98;100.00
51333;BME280;37417;48.118;11.734;2023-05-16T02:07:59;95071.84;;;9.01;100.00
51333;BME280;37417;48.118;11.734;2023-05-16T02:10:44;95071.00;;;8.87;100.00
51333;BME280;37417;48.118;11.734;2023-05-16T02:13:30;95068.59;;;8.85;100.00
51333;BME280;37417;48.118;11.734;2023-05-16T02:16:16;95078.97;;;8.79;100.00
51333;BME280;37417;48.118;11.734;2023-05-16T02:19:01;95087.00;;;8.84;100.00
51333;BME280;37417;48.118;11.734;2023-05-16T02:21:47;95083.75;;;8.82;100.00
51333;BME280;37417;48.118;11.734;2023-05-16T02:24:33;95078.38;;;8.77;100.00
51333;BME280;37417;48.118;11.734;2023-05-16T02:27:18;95089.13;;;8.74;100.00
51333;BME280;37417;48.118;11.734;2023-05-16T02:30:04;95087.09;;;8.69;100.00
51333;BME280;37417;48.118;11.734;2023-05-16T02:32:50;95085.13;;;8.71;100.00
51333;BME280;37417;48.118;11.734;2023-05-16T02:35:38;95084.34;;;8.71;100.00
51333;BME280;37417;48.118;11.734;2023-05-16T02:38:24;95085.16;;;8.78;100.00
51333;BME280;37417;48.118;11.734;2023-05-16T02:41:09;95081.56;;;8.79;100.00
51333;BME280;37417;48.118;11.734;2023-05-16T02:43:55;95070.56;;;8.77;100.00
51333;BME280;37417;48.118;11.734;2023-05-16T02:46:41;95071.13;;;8.72;100.00
51333;BME280;37417;48.118;11.734;2023-05-16T02:49:26;95069.88;;;8.61;100.00
51333;BME280;37417;48.118;11.734;2023-05-16T02:52:12;95067.13;;;8.70;100.00
51333;BME280;37417;48.118;11.734;2023-05-16T02:54:57;95070.09;;;8.66;100.00
51333;BME280;37417;48.118;11.734;2023-05-16T02:57:43;95071.34;;;8.71;100.00
51333;BME280;37417;48.118;11.734;2023-05-16T03:00:29;95075.34;;;8.73;100.00
51333;BME280;37417;48.118;11.734;2023-05-16T03:03:14;95070.09;;;8.66;100.00
51333;BME280;37417;48.118;11.734;2023-05-16T03:06:00;95072.91;;;8.65;100.00
51333;BME280;37417;48.118;11.734;2023-05-16T03:08:46;95068.47;;;8.59;100.00
51333;BME280;37417;48.118;11.734;2023-05-16T03:11:32;95071.06;;;8.59;100.00
51333;BME280;37417;48.118;11.734;2023-05-16T03:14:18;95077.44;;;8.56;100.00
51333;BME280;37417;48.118;11.734;2023-05-16T03:17:03;95085.88;;;8.58;100.00
51333;BME280;37417;48.118;11.734;2023-05-16T03:19:50;95080.88;;;8.57;100.00
51333;BME280;37417;48.118;11.734;2023-05-16T03:22:35;95083.03;;;8.53;100.00
51333;BME280;37417;48.118;11.734;2023-05-16T03:25:21;95085.09;;;8.64;100.00
51333;BME280;37417;48.118;11.734;2023-05-16T03:28:07;95082.88;;;8.61;100.00
51333;BME280;37417;48.118;11.734;2023-05-16T03:30:53;95081.31;;;8.67;100.00
51333;BME280;37417;48.118;11.734;2023-05-16T03:33:38;95079.69;;;8.66;100.00
51333;BME280;37417;48.118;11.734;2023-05-16T03:36:24;95079.13;;;8.71;100.00
51333;BME280;37417;48.118;11.734;2023-05-16T03:39:10;95072.53;;;8.75;100.00
51333;BME280;37417;48.118;11.734;2023-05-16T03:41:55;95075.91;;;8.68;100.00
51333;BME280;37417;48.118;11.734;2023-05-16T03:44:41;95069.91;;;8.68;100.00
51333;BME280;37417;48.118;11.734;2023-05-16T03:47:27;95064.91;;;8.66;100.00
51333;BME280;37417;48.118;11.734;2023-05-16T03:50:15;95071.88;;;8.59;100.00
51333;BME280;37417;48.118;11.734;2023-05-16T03:53:01;95073.03;;;8.50;100.00
51333;BME280;37417;48.118;11.734;2023-05-16T03:55:48;95072.19;;;8.50;100.00
51333;BME280;37417;48.118;11.734;2023-05-16T03:58:33;95077.41;;;8.50;100.00
51333;BME280;37417;48.118;11.734;2023-05-16T04:01:19;95084.09;;;8.65;100.00
51333;BME280;37417;48.118;11.734;2023-05-16T04:04:04;95076.69;;;8.69;100.00
51333;BME280;37417;48.118;11.734;2023-05-16T04:06:50;95090.69;;;8.68;100.00
51333;BME280;37417;48.118;11.734;2023-05-16T04:09:36;95075.31;;;8.66;100.00
51333;BME280;37417;48.118;11.734;2023-05-16T04:12:22;95082.91;;;8.68;100.00
51333;BME280;37417;48.118;11.734;2023-05-16T04:15:07;95081.53;;;8.72;100.00
51333;BME280;37417;48.118;11.734;2023-05-16T04:17:53;95077.97;;;8.80;100.00
51333;BME280;37417;48.118;11.734;2023-05-16T04:20:41;95073.59;;;8.87;100.00
51333;BME280;37417;48.118;11.734;2023-05-16T04:23:27;95066.16;;;8.77;100.00
51333;BME280;37417;48.118;11.734;2023-05-16T04:26:12;95075.94;;;8.75;100.00
51333;BME280;37417;48.118;11.734;2023-05-16T04:28:58;95065.09;;;8.65;100.00
51333;BME280;37417;48.118;11.734;2023-05-16T04:31:44;95074.69;;;8.64;100.00
51333;BME280;37417;48.118;11.734;2023-05-16T04:34:30;95074.66;;;8.58;100.00
51333;BME280;37417;48.118;11.734;2023-05-16T04:37:16;95075.91;;;8.68;100.00
51333;BME280;37417;48.118;11.734;2023-05-16T04:40:01;95080.56;;;8.80;100.00
51333;BME280;37417;48.118;11.734;2023-05-16T04:42:47;95080.97;;;8.77;100.00
51333;BME280;37417;48.118;11.734;2023-05-16T04:45:33;95075.94;;;8.75;100.00
51333;BME280;37417;48.118;11.734;2023-05-16T04:48:18;95079.53;;;8.74;100.00
51333;BME280;37417;48.118;11.734;2023-05-16T04:51:04;95076.59;;;8.84;100.00
51333;BME280;37417;48.118;11.734;2023-05-16T04:53:50;95076.41;;;8.92;100.00
51333;BME280;37417;48.118;11.734;2023-05-16T04:56:35;95076.69;;;9.04;100.00
51333;BME280;37417;48.118;11.734;2023-05-16T04:59:21;95071.28;;;9.05;100.00
51333;BME280;37417;48.118;11.734;2023-05-16T05:02:06;95069.47;;;9.06;100.00
51333;BME280;37417;48.118;11.734;2023-05-16T05:04:52;95073.88;;;9.05;100.00
51333;BME280;37417;48.118;11.734;2023-05-16T05:07:38;95069.66;;;9.04;100.00
51333;BME280;37417;48.118;11.734;2023-05-16T05:10:24;95070.50;;;9.11;100.00
51333;BME280;37417;48.118;11.734;2023-05-16T05:13:12;95071.47;;;9.04;100.00
51333;BME280;37417;48.118;11.734;2023-05-16T05:15:57;95074.47;;;9.07;100.00
51333;BME280;37417;48.118;11.734;2023-05-16T05:18:43;95074.31;;;9.15;100.00
51333;BME280;37417;48.118;11.734;2023-05-16T05:21:29;95070.09;;;9.14;100.00
51333;BME280;37417;48.118;11.734;2023-05-16T05:24:15;95070.91;;;9.08;100.00
51333;BME280;37417;48.118;11.734;2023-05-16T05:27:00;95073.69;;;9.13;100.00
51333;BME280;37417;48.118;11.734;2023-05-16T05:29:46;95071.72;;;9.15;100.00
51333;BME280;37417;48.118;11.734;2023-05-16T05:32:32;95070.72;;;9.16;100.00
51333;BME280;37417;48.118;11.734;2023-05-16T05:35:18;95073.56;;;9.28;100.00
51333;BME280;37417;48.118;11.734;2023-05-16T05:38:03;95071.75;;;9.22;100.00
51333;BME280;37417;48.118;11.734;2023-05-16T05:40:49;95064.53;;;9.24;100.00
51333;BME280;37417;48.118;11.734;2023-05-16T05:43:34;95062.97;;;9.36;100.00
51333;BME280;37417;48.118;11.734;2023-05-16T05:46:20;95057.38;;;9.53;100.00
51333;BME280;37417;48.118;11.734;2023-05-16T05:49:06;95059.41;;;9.70;100.00
51333;BME280;37417;48.118;11.734;2023-05-16T05:51:52;95046.13;;;9.39;100.00
51333;BME280;37417;48.118;11.734;2023-05-16T05:54:38;95050.97;;;9.42;100.00
51333;BME280;37417;48.118;11.734;2023-05-16T05:57:24;95044.78;;;9.56;100.00
51333;BME280;37417;48.118;11.734;2023-05-16T06:00:10;95049.16;;;9.36;100.00
51333;BME280;37417;48.118;11.734;2023-05-16T06:02:56;95048.13;;;9.37;100.00
51333;BME280;37417;48.118;11.734;2023-05-16T06:05:42;95046.34;;;9.37;100.00
51333;BME280;37417;48.118;11.734;2023-05-16T06:08:27;95044.97;;;9.61;100.00
51333;BME280;37417;48.118;11.734;2023-05-16T06:11:13;95038.75;;;9.49;100.00
51333;BME280;37417;48.118;11.734;2023-05-16T06:13:59;95046.00;;;9.60;100.00
51333;BME280;37417;48.118;11.734;2023-05-16T06:16:44;95049.78;;;9.58;100.00
51333;BME280;37417;48.118;11.734;2023-05-16T06:19:30;95052.59;;;9.83;100.00
51333;BME280;37417;48.118;11.734;2023-05-16T06:22:16;95047.59;;;9.88;100.00
51333;BME280;37417;48.118;11.734;2023-05-16T06:25:01;95047.59;;;10.01;100.00
51333;BME280;37417;48.118;11.734;2023-05-16T06:27:47;95036.16;;;9.89;100.00
51333;BME280;37417;48.118;11.734;2023-05-16T06:30:33;95043.97;;;9.75;100.00
51333;BME280;37417;48.118;11.734;2023-05-16T06:33:19;95042.75;;;9.58;100.00
51333;BME280;37417;48.118;11.734;2023-05-16T06:36:05;95051.97;;;9.47;100.00
51333;BME280;37417;48.118;11.734;2023-05-16T06:38:51;95062.75;;;9.31;100.00
51333;BME280;37417;48.118;11.734;2023-05-16T06:41:36;95069.69;;;9.11;100.00
51333;BME280;37417;48.118;11.734;2023-05-16T06:44:22;95079.91;;;9.12;100.00
51333;BME280;37417;48.118;11.734;2023-05-16T06:47:08;95090.03;;;8.94;100.00
51333;BME280;37417;48.118;11.734;2023-05-16T06:49:54;95099.22;;;8.90;100.00
51333;BME280;37417;48.118;11.734;2023-05-16T06:52:39;95102.59;;;8.84;100.00
51333;BME280;37417;48.118;11.734;2023-05-16T06:55:26;95114.13;;;9.09;100.00
51333;BME280;37417;48.118;11.734;2023-05-16T06:58:12;95117.78;;;9.21;100.00
51333;BME280;37417;48.118;11.734;2023-05-16T07:00:57;95115.38;;;9.27;100.00
51333;BME280;37417;48.118;11.734;2023-05-16T07:03:43;95120.78;;;9.25;100.00
51333;BME280;37417;48.118;11.734;2023-05-16T07:06:28;95120.56;;;9.20;100.00
51333;BME280;37417;48.118;11.734;2023-05-16T07:09:14;95116.19;;;9.34;100.00
51333;BME280;37417;48.118;11.734;2023-05-16T07:12:00;95124.41;;;9.31;100.00
51333;BME280;37417;48.118;11.734;2023-05-16T07:14:46;95119.38;;;9.22;100.00
51333;BME280;37417;48.118;11.734;2023-05-16T07:17:32;95116.28;;;9.54;100.00
51333;BME280;37417;48.118;11.734;2023-05-16T07:20:17;95127.28;;;9.56;100.00
51333;BME280;37417;48.118;11.734;2023-05-16T07:23:03;95122.72;;;9.77;100.00
51333;BME280;37417;48.118;11.734;2023-05-16T07:25:49;95128.56;;;9.93;100.00
51333;BME280;37417;48.118;11.734;2023-05-16T07:28:34;95124.38;;;10.05;100.00
51333;BME280;37417;48.118;11.734;2023-05-16T07:31:20;95133.19;;;10.24;100.00
51333;BME280;37417;48.118;11.734;2023-05-16T07:34:06;95141.81;;;10.18;100.00
51333;BME280;37417;48.118;11.734;2023-05-16T07:36:51;95146.81;;;10.19;100.00
51333;BME280;37417;48.118;11.734;2023-05-16T07:39:38;95139.84;;;10.33;100.00
51333;BME280;37417;48.118;11.734;2023-05-16T07:42:24;95127.78;;;10.12;100.00
51333;BME280;37417;48.118;11.734;2023-05-16T07:45:10;95127.19;;;10.30;100.00
51333;BME280;37417;48.118;11.734;2023-05-16T07:47:55;95125.41;;;10.30;100.00
51333;BME280;37417;48.118;11.734;2023-05-16T07:50:42;95114.97;;;10.37;100.00
51333;BME280;37417;48.118;11.734;2023-05-16T07:53:28;95102.34;;;10.27;100.00
51333;BME280;37417;48.118;11.734;2023-05-16T07:56:13;95118.94;;;9.93;100.00
51333;BME280;37417;48.118;11.734;2023-05-16T07:58:59;95132.34;;;9.84;100.00
51333;BME280;37417;48.118;11.734;2023-05-16T08:01:45;95125.53;;;9.83;100.00
51333;BME280;37417;48.118;11.734;2023-05-16T08:04:31;95131.31;;;9.78;100.00
51333;BME280;37417;48.118;11.734;2023-05-16T08:07:16;95127.91;;;9.64;100.00
51333;BME280;37417;48.118;11.734;2023-05-16T08:10:02;95122.94;;;10.22;100.00
51333;BME280;37417;48.118;11.734;2023-05-16T08:12:48;95128.97;;;10.10;100.00
51333;BME280;37417;48.118;11.734;2023-05-16T08:15:34;95120.78;;;10.46;100.00
51333;BME280;37417;48.118;11.734;2023-05-16T08:18:20;95125.09;;;10.92;100.00
51333;BME280;37417;48.118;11.734;2023-05-16T08:21:05;95114.28;;;10.81;100.00
51333;BME280;37417;48.118;11.734;2023-05-16T08:23:51;95115.47;;;10.85;100.00
51333;BME280;37417;48.118;11.734;2023-05-16T08:26:37;95107.31;;;10.49;100.00
51333;BME280;37417;48.118;11.734;2023-05-16T08:29:22;95101.31;;;10.28;100.00
51333;BME280;37417;48.118;11.734;2023-05-16T08:32:08;95111.97;;;10.27;100.00
51333;BME280;37417;48.118;11.734;2023-05-16T08:34:55;95112.16;;;10.12;100.00
51333;BME280;37417;48.118;11.734;2023-05-16T08:37:41;95116.75;;;10.70;100.00
51333;BME280;37417;48.118;11.734;2023-05-16T08:40:27;95114.03;;;11.03;100.00
51333;BME280;37417;48.118;11.734;2023-05-16T08:43:12;95110.72;;;10.56;100.00
51333;BME280;37417;48.118;11.734;2023-05-16T08:45:58;95106.50;;;10.02;100.00
51333;BME280;37417;48.118;11.734;2023-05-16T08:48:44;95117.13;;;9.81;100.00
51333;BME280;37417;48.118;11.734;2023-05-16T08:51:32;95123.34;;;9.86;100.00
51333;BME280;37417;48.118;11.734;2023-05-16T08:54:21;95140.94;;;9.77;100.00
51333;BME280;37417;48.118;11.734;2023-05-16T08:57:07;95154.22;;;10.16;100.00
51333;BME280;37417;48.118;11.734;2023-05-16T08:59:55;95154.84;;;10.11;100.00
51333;BME280;37417;48.118;11.734;2023-05-16T09:02:42;95152.22;;;10.04;100.00
51333;BME280;37417;48.118;11.734;2023-05-16T09:05:29;95147.03;;;10.64;100.00
51333;BME280;37417;48.118;11.734;2023-05-16T09:08:15;95145.50;;;11.21;100.00
51333;BME280;37417;48.118;11.734;2023-05-16T09:11:02;95127.00;;;11.23;100.00
51333;BME280;37417;48.118;11.734;2023-05-16T09:13:48;95114.06;;;10.96;100.00
51333;BME280;37417;48.118;11.734;2023-05-16T09:16:34;95108.91;;;12.29;100.00
51333;BME280;37417;48.118;11.734;2023-05-16T09:19:21;95092.78;;;12.94;100.00
51333;BME280;37417;48.118;11.734;2023-05-16T09:22:11;95071.00;;;11.57;100.00
51333;BME280;37417;48.118;11.734;2023-05-16T09:24:58;95080.19;;;13.39;100.00
51333;BME280;37417;48.118;11.734;2023-05-16T09:27:47;95061.06;;;14.57;100.00
51333;BME280;37417;48.118;11.734;2023-05-16T09:30:33;95055.41;;;15.01;100.00
51333;BME280;37417;48.118;11.734;2023-05-16T09:33:22;95041.13;;;15.08;100.00
51333;BME280;37417;48.118;11.734;2023-05-16T09:36:08;95047.16;;;13.20;100.00
51333;BME280;37417;48.118;11.734;2023-05-16T09:38:54;95047.88;;;13.87;100.00
51333;BME280;37417;48.118;11.734;2023-05-16T09:41:40;95055.25;;;13.67;100.00
51333;BME280;37417;48.118;11.734;2023-05-16T09:44:25;95044.19;;;15.74;100.00
51333;BME280;37417;48.118;11.734;2023-05-16T09:47:13;95046.75;;;16.19;100.00
51333;BME280;37417;48.118;11.734;2023-05-16T09:49:59;95044.50;;;17.00;100.00
51333;BME280;37417;48.118;11.734;2023-05-16T09:52:45;95034.66;;;16.74;100.00
51333;BME280;37417;48.118;11.734;2023-05-16T09:55:31;95050.28;;;13.59;100.00
51333;BME280;37417;48.118;11.734;2023-05-16T09:58:17;95049.72;;;13.98;100.00
51333;BME280;37417;48.118;11.734;2023-05-16T10:01:04;95052.28;;;14.75;100.00
51333;BME280;37417;48.118;11.734;2023-05-16T10:03:50;95053.06;;;14.76;100.00
51333;BME280;37417;48.118;11.734;2023-05-16T10:06:36;95054.59;;;15.00;100.00
51333;BME280;37417;48.118;11.734;2023-05-16T10:09:22;95051.88;;;14.01;100.00
51333;BME280;37417;48.118;11.734;2023-05-16T10:12:10;95059.38;;;13.44;100.00
51333;BME280;37417;48.118;11.734;2023-05-16T10:15:02;95047.34;;;14.32;100.00
51333;BME280;37417;48.118;11.734;2023-05-16T10:17:50;95048.38;;;14.66;100.00
51333;BME280;37417;48.118;11.734;2023-05-16T10:23:26;95057.50;;;13.15;100.00
51333;BME280;37417;48.118;11.734;2023-05-16T10:26:15;95055.78;;;14.11;100.00
51333;BME280;37417;48.118;11.734;2023-05-16T10:29:01;95051.69;;;13.31;100.00
51333;BME280;37417;48.118;11.734;2023-05-16T10:31:47;95058.34;;;13.45;100.00
51333;BME280;37417;48.118;11.734;2023-05-16T10:34:33;95079.34;;;13.87;100.00
51333;BME280;37417;48.118;11.734;2023-05-16T10:37:19;95072.38;;;13.51;100.00
51333;BME280;37417;48.118;11.734;2023-05-16T10:40:05;95070.16;;;13.66;100.00
51333;BME280;37417;48.118;11.734;2023-05-16T10:42:56;95073.03;;;13.76;100.00
51333;BME280;37417;48.118;11.734;2023-05-16T10:45:42;95071.84;;;13.61;100.00
51333;BME280;37417;48.118;11.734;2023-05-16T10:48:30;95071.34;;;13.52;100.00
51333;BME280;37417;48.118;11.734;2023-05-16T10:54:09;95084.84;;;11.96;100.00
51333;BME280;37417;48.118;11.734;2023-05-16T10:57:03;95090.75;;;12.09;100.00
51333;BME280;37417;48.118;11.734;2023-05-16T10:59:50;95088.66;;;12.25;100.00
51333;BME280;37417;48.118;11.734;2023-05-16T11:02:40;95090.97;;;12.08;100.00
51333;BME280;37417;48.118;11.734;2023-05-16T11:05:26;95087.81;;;11.68;100.00
51333;BME280;37417;48.118;11.734;2023-05-16T11:08:13;95096.34;;;11.50;100.00
51333;BME280;37417;48.118;11.734;2023-05-16T11:11:37;95092.66;;;11.64;100.00
51333;BME280;37417;48.118;11.734;2023-05-16T11:17:20;95092.88;;;11.18;100.00
51333;BME280;37417;48.118;11.734;2023-05-16T11:20:07;95086.16;;;10.97;100.00
51333;BME280;37417;48.118;11.734;2023-05-16T11:26:07;95191.31;;;11.04;100.00
51333;BME280;37417;48.118;11.734;2023-05-16T11:28:52;95188.28;;;11.13;100.00
51333;BME280;37417;48.118;11.734;2023-05-16T11:31:39;95200.00;;;11.56;100.00
51333;BME280;37417;48.118;11.734;2023-05-16T11:34:25;95191.13;;;11.63;100.00
51333;BME280;37417;48.118;11.734;2023-05-16T11:37:10;95191.25;;;12.20;100.00
51333;BME280;37417;48.118;11.734;2023-05-16T11:40:00;95172.25;;;11.61;100.00
51333;BME280;37417;48.118;11.734;2023-05-16T11:42:46;95176.66;;;11.09;100.00
51333;BME280;37417;48.118;11.734;2023-05-16T11:45:32;95158.56;;;11.21;100.00
51333;BME280;37417;48.118;11.734;2023-05-16T11:48:23;95155.22;;;10.88;100.00
51333;BME280;37417;48.118;11.734;2023-05-16T11:51:09;95168.50;;;10.73;100.00
51333;BME280;37417;48.118;11.734;2023-05-16T11:53:55;95171.31;;;10.58;100.00
51333;BME280;37417;48.118;11.734;2023-05-16T11:56:42;95173.72;;;10.46;100.00
51333;BME280;37417;48.118;11.734;2023-05-16T11:59:27;95174.72;;;10.45;100.00
51333;BME280;37417;48.118;11.734;2023-05-16T12:02:13;95169.91;;;10.62;100.00
51333;BME280;37417;48.118;11.734;2023-05-16T12:05:06;95185.84;;;11.19;100.00
51333;BME280;37417;48.118;11.734;2023-05-16T12:07:53;95183.59;;;11.42;100.00
51333;BME280;37417;48.118;11.734;2023-05-16T12:10:39;95181.03;;;11.22;100.00
51333;BME280;37417;48.118;11.734;2023-05-16T12:13:26;95170.84;;;11.59;100.00
51333;BME280;37417;48.118;11.734;2023-05-16T12:16:12;95171.53;;;11.92;100.00
51333;BME280;37417;48.118;11.734;2023-05-16T12:18:58;95155.22;;;11.90;100.00
51333;BME280;37417;48.118;11.734;2023-05-16T12:21:44;95147.88;;;12.37;100.00
51333;BME280;37417;48.118;11.734;2023-05-16T12:24:30;95135.94;;;12.66;100.00
51333;BME280;37417;48.118;11.734;2023-05-16T12:27:23;95125.50;;;12.41;100.00
51333;BME280;37417;48.118;11.734;2023-05-16T12:30:10;95123.50;;;12.18;100.00
51333;BME280;37417;48.118;11.734;2023-05-16T12:33:07;95123.09;;;12.40;100.00
51333;BME280;37417;48.118;11.734;2023-05-16T12:35:53;95115.41;;;12.88;100.00
51333;BME280;37417;48.118;11.734;2023-05-16T12:38:40;95103.94;;;12.46;100.00
51333;BME280;37417;48.118;11.734;2023-05-16T12:41:26;95100.75;;;12.19;100.00
51333;BME280;37417;48.118;11.734;2023-05-16T12:44:16;95098.00;;;12.57;100.00
51333;BME280;37417;48.118;11.734;2023-05-16T12:47:10;95091.78;;;12.33;100.00
51333;BME280;37417;48.118;11.734;2023-05-16T12:49:56;95083.97;;;12.52;100.00
51333;BME280;37417;48.118;11.734;2023-05-16T12:52:58;95080.25;;;12.16;100.00
51333;BME280;37417;48.118;11.734;2023-05-16T12:55:45;95087.88;;;12.42;100.00
51333;BME280;37417;48.118;11.734;2023-05-16T12:58:31;95079.91;;;12.92;100.00
51333;BME280;37417;48.118;11.734;2023-05-16T13:01:16;95080.28;;;12.96;100.00
51333;BME280;37417;48.118;11.734;2023-05-16T13:04:03;95081.38;;;12.70;100.00
51333;BME280;37417;48.118;11.734;2023-05-16T13:06:49;95074.16;;;13.69;100.00
51333;BME280;37417;48.118;11.734;2023-05-16T13:09:34;95055.38;;;13.83;100.00
51333;BME280;37417;48.118;11.734;2023-05-16T13:12:20;95043.25;;;13.71;100.00
51333;BME280;37417;48.118;11.734;2023-05-16T13:15:08;95044.44;;;13.33;100.00
51333;BME280;37417;48.118;11.734;2023-05-16T13:17:54;95054.16;;;13.26;100.00
51333;BME280;37417;48.118;11.734;2023-05-16T13:20:40;95050.97;;;13.24;100.00
51333;BME280;37417;48.118;11.734;2023-05-16T13:23:26;95057.31;;;12.98;100.00
51333;BME280;37417;48.118;11.734;2023-05-16T13:26:12;95058.81;;;12.87;100.00
51333;BME280;37417;48.118;11.734;2023-05-16T13:28:57;95057.84;;;12.88;100.00
51333;BME280;37417;48.118;11.734;2023-05-16T13:31:43;95061.44;;;12.51;100.00
51333;BME280;37417;48.118;11.734;2023-05-16T13:34:29;95065.19;;;12.36;100.00
51333;BME280;37417;48.118;11.734;2023-05-16T13:37:17;95066.47;;;12.70;100.00
51333;BME280;37417;48.118;11.734;2023-05-16T13:40:03;95067.22;;;12.78;100.00
51333;BME280;37417;48.118;11.734;2023-05-16T13:42:49;95051.25;;;12.61;100.00
51333;BME280;37417;48.118;11.734;2023-05-16T13:45:35;95065.16;;;12.18;100.00
51333;BME280;37417;48.118;11.734;2023-05-16T13:48:21;95067.28;;;12.03;100.00
51333;BME280;37417;48.118;11.734;2023-05-16T13:51:07;95049.69;;;11.60;100.00
51333;BME280;37417;48.118;11.734;2023-05-16T13:53:53;95050.53;;;11.54;100.00
51333;BME280;37417;48.118;11.734;2023-05-16T13:56:38;95052.78;;;11.44;100.00
51333;BME280;37417;48.118;11.734;2023-05-16T13:59:24;95066.34;;;11.27;100.00
51333;BME280;37417;48.118;11.734;2023-05-16T14:02:10;95069.06;;;11.01;100.00
51333;BME280;37417;48.118;11.734;2023-05-16T14:04:55;95079.06;;;11.10;100.00
51333;BME280;37417;48.118;11.734;2023-05-16T14:07:41;95082.56;;;10.84;100.00
51333;BME280;37417;48.118;11.734;2023-05-16T14:10:27;95091.03;;;10.73;100.00
51333;BME280;37417;48.118;11.734;2023-05-16T14:13:12;95082.03;;;10.49;100.00
51333;BME280;37417;48.118;11.734;2023-05-16T14:15:58;95106.50;;;10.55;100.00
51333;BME280;37417;48.118;11.734;2023-05-16T14:18:44;95116.94;;;10.48;100.00
51333;BME280;37417;48.118;11.734;2023-05-16T14:21:29;95127.22;;;10.43;100.00
51333;BME280;37417;48.118;11.734;2023-05-16T14:24:15;95137.22;;;10.26;100.00
51333;BME280;37417;48.118;11.734;2023-05-16T14:27:01;95143.44;;;10.32;100.00
51333;BME280;37417;48.118;11.734;2023-05-16T14:29:47;95154.69;;;10.46;100.00
51333;BME280;37417;48.118;11.734;2023-05-16T14:32:33;95152.28;;;10.38;100.00
51333;BME280;37417;48.118;11.734;2023-05-16T14:35:19;95163.09;;;10.28;100.00
51333;BME280;37417;48.118;11.734;2023-05-16T14:38:04;95174.72;;;10.25;100.00
51333;BME280;37417;48.118;11.734;2023-05-16T14:40:51;95168.50;;;10.33;100.00
51333;BME280;37417;48.118;11.734;2023-05-16T14:43:37;95182.13;;;10.28;100.00